createdAt,value
2022-09-03T00:00:51.985Z,0.064960003
2022-09-03T00:01:49.361Z,0.113680005
2022-09-03T00:02:48.778Z,0.113680005
2022-09-03T00:03:45.016Z,0.105560005
2022-09-03T00:04:45.145Z,0.073080003
2022-09-03T00:06:44.316Z,0.121800005
2022-09-03T00:07:38.712Z,0.048720002
2022-09-03T00:08:40.770Z,0.146160007
2022-09-03T00:09:33.792Z,0.089320004
2022-09-03T00:11:33.508Z,0.105560005
2022-09-03T00:12:30.760Z,0.056840003
2022-09-03T00:13:33.037Z,0.105560005
2022-09-03T00:14:33.762Z,0.081200004
2022-09-03T00:15:37.548Z,0.073080003
2022-09-03T00:16:36.605Z,0.040600002
2022-09-03T00:17:35.760Z,0.081200004
2022-09-03T00:18:44.603Z,0.073080003
2022-09-03T00:19:40.723Z,0.146160007
2022-09-03T00:21:42.481Z,0.081200004
2022-09-03T00:22:46.368Z,0.056840003
2022-09-03T00:23:40.627Z,0.113680005
2022-09-03T00:24:40.834Z,0.129920006
2022-09-03T00:25:36.501Z,0.016240001
2022-09-03T00:26:40.495Z,0.024360001
2022-09-03T00:27:37.648Z,0.105560005
2022-09-03T00:28:38.145Z,0.105560005
2022-09-03T00:29:34.333Z,0.162400007
2022-09-03T00:31:35.543Z,0.097440004
2022-09-03T00:32:39.388Z,0.203000009
2022-09-03T00:33:33.680Z,0.105560005
2022-09-03T00:34:34.373Z,0.105560005
2022-09-03T00:35:28.623Z,0.040600002
2022-09-03T00:36:31.757Z,0.138040006
2022-09-03T00:37:23.696Z,0.081200004
2022-09-03T00:38:24.722Z,0.089320004
2022-09-03T00:39:19.369Z,0
2022-09-03T00:40:21.616Z,0.040600002
2022-09-03T00:41:15.945Z,0.048720002
2022-09-03T00:42:20.261Z,0.081200004
2022-09-03T00:43:18.349Z,0.056840003
2022-09-03T00:45:49.185Z,0.024360001
2022-09-03T00:46:46.350Z,0.146160007
2022-09-03T00:47:49.916Z,0.064960003
2022-09-03T00:48:58.039Z,0.048720002
2022-09-03T00:50:00.454Z,0.138040006
2022-09-03T00:51:56.957Z,0.040600002
2022-09-03T00:52:55.254Z,0.073080003
2022-09-03T00:53:57.801Z,0.056840003
2022-09-03T00:54:52.250Z,0.105560005
2022-09-03T00:55:51.371Z,0.089320004
2022-09-03T00:56:49.350Z,0.097440004
2022-09-03T00:57:49.754Z,0.121800005
2022-09-03T00:58:46.796Z,0.056840003
2022-09-03T00:59:49.517Z,0.105560005
2022-09-03T01:00:46.287Z,0.089320004
2022-09-03T01:01:48.868Z,0.162400007
2022-09-03T01:02:45.667Z,0.081200004
2022-09-03T01:03:54.963Z,0.016240001
2022-09-03T01:04:50.208Z,0.121800005
2022-09-03T01:05:45.554Z,0.056840003
2022-09-03T01:06:54.277Z,0.113680005
2022-09-03T01:07:50.008Z,0.178640008
2022-09-03T01:08:47.448Z,0.089320004
2022-09-03T01:09:46.794Z,0.089320004
2022-09-03T01:10:44.069Z,0.064960003
2022-09-03T01:11:45.670Z,0.048720002
2022-09-03T01:12:38.201Z,0.105560005
2022-09-03T01:13:43.667Z,0.064960003
2022-09-03T01:14:36.343Z,0.113680005
2022-09-03T01:15:38.649Z,0.056840003
2022-09-03T01:16:33.099Z,0.081200004
2022-09-03T01:17:36.606Z,0.040600002
2022-09-03T01:18:33.013Z,0.113680005
2022-09-03T01:19:41.751Z,0.048720002
2022-09-03T01:22:08.899Z,0.048720002
2022-09-03T01:23:13.142Z,0.048720002
2022-09-03T01:24:07.837Z,0.073080003
2022-09-03T01:25:10.036Z,0.081200004
2022-09-03T01:26:07.437Z,0.081200004
2022-09-03T01:27:04.819Z,0.113680005
2022-09-03T01:28:07.916Z,0.138040006
2022-09-03T01:29:09.283Z,0.129920006
2022-09-03T01:30:08.796Z,0.024360001
2022-09-03T01:31:06.585Z,0.081200004
2022-09-03T01:32:14.852Z,0.097440004
2022-09-03T01:33:07.253Z,0.129920006
2022-09-03T01:34:07.726Z,0.081200004
2022-09-03T01:35:06.883Z,0.089320004
2022-09-03T01:37:05.531Z,0.081200004
2022-09-03T01:38:09.464Z,0.121800005
2022-09-03T01:39:01.812Z,0.040600002
2022-09-03T01:40:04.415Z,0.186760008
2022-09-03T01:40:56.690Z,0.121800005
2022-09-03T01:41:55.661Z,0.129920006
2022-09-03T01:42:50.934Z,0.081200004
2022-09-03T01:43:53.194Z,0.073080003
2022-09-03T01:44:56.950Z,0.064960003
2022-09-03T01:45:57.662Z,0.024360001
2022-09-03T01:46:58.925Z,0.121800005
2022-09-03T01:47:51.999Z,0.097440004
2022-09-03T01:51:32.334Z,0.129920006
2022-09-03T01:52:39.416Z,0.073080003
2022-09-03T01:53:35.866Z,0.064960003
2022-09-03T01:54:40.720Z,0.113680005
2022-09-03T01:55:32.978Z,0.113680005
2022-09-03T01:56:35.106Z,0.105560005
2022-09-03T01:57:35.305Z,0.089320004
2022-09-03T01:58:34.453Z,0.097440004
2022-09-03T01:59:29.066Z,0
2022-09-03T02:00:28.592Z,0.073080003
2022-09-03T02:01:24.522Z,0.154280007
2022-09-03T02:02:25.808Z,0.081200004
2022-09-03T02:03:32.026Z,0.105560005
2022-09-03T02:04:52.725Z,0.097440004
2022-09-03T02:05:56.761Z,0.056840003
2022-09-03T02:06:52.929Z,0.121800005
2022-09-03T02:07:54.147Z,0.113680005
2022-09-03T02:08:50.795Z,0.146160007
2022-09-03T02:09:54.591Z,0.081200004
2022-09-03T02:10:50.032Z,0.105560005
2022-09-03T02:11:51.769Z,0.064960003
2022-09-03T02:12:50.008Z,0.056840003
2022-09-03T02:13:49.154Z,0.048720002
2022-09-03T02:14:43.446Z,0.113680005
2022-09-03T02:15:47.089Z,0.113680005
2022-09-03T02:16:44.307Z,0.105560005
2022-09-03T02:17:42.858Z,0.089320004
2022-09-03T02:18:38.254Z,0.073080003
2022-09-03T02:19:40.326Z,0.048720002
2022-09-03T02:20:38.485Z,0.064960003
2022-09-03T02:21:40.218Z,0.089320004
2022-09-03T02:22:36.701Z,0.105560005
2022-09-03T02:23:36.494Z,0.073080003
2022-09-03T02:24:33.215Z,0.089320004
2022-09-03T02:25:32.861Z,0.097440004
2022-09-03T02:26:27.317Z,0.097440004
2022-09-03T02:28:57.757Z,0.105560005
2022-09-03T02:29:56.861Z,0.097440004
2022-09-03T02:30:55.340Z,0.097440004
2022-09-03T02:31:53.704Z,0.113680005
2022-09-03T02:32:48.275Z,0.081200004
2022-09-03T02:33:48.216Z,0.064960003
2022-09-03T02:34:54.038Z,0.081200004
2022-09-03T02:35:55.465Z,0.081200004
2022-09-03T02:36:53.257Z,0.073080003
2022-09-03T02:37:51.292Z,0.129920006
2022-09-03T02:38:48.300Z,0.146160007
2022-09-03T02:39:48.038Z,0.146160007
2022-09-03T02:40:51.662Z,0.097440004
2022-09-03T02:41:50.867Z,0.032480001
2022-09-03T02:42:49.669Z,0.105560005
2022-09-03T02:43:45.820Z,0.048720002
2022-09-03T02:44:45.664Z,0.113680005
2022-09-03T02:45:40.213Z,0.073080003
2022-09-03T02:46:44.132Z,0.073080003
2022-09-03T02:47:38.229Z,0.113680005
2022-09-03T02:48:40.533Z,0.064960003
2022-09-03T02:49:32.982Z,0.056840003
2022-09-03T02:50:31.344Z,0.146160007
2022-09-03T02:51:33.013Z,0.105560005
2022-09-03T02:52:29.992Z,0.056840003
2022-09-03T02:53:34.842Z,0.073080003
2022-09-03T02:54:33.042Z,0.146160007
2022-09-03T02:55:28.310Z,0.064960003
2022-09-03T02:56:32.332Z,0.194880009
2022-09-03T02:57:27.863Z,0.105560005
2022-09-03T02:58:25.936Z,0.064960003
2022-09-03T02:59:22.223Z,0.138040006
2022-09-03T03:00:21.332Z,0.121800005
2022-09-03T03:01:23.863Z,0.097440004
2022-09-03T03:02:22.080Z,0.081200004
2022-09-03T03:03:18.617Z,0.089320004
2022-09-03T03:04:18.666Z,0.089320004
2022-09-03T03:05:18.003Z,0.032480001
2022-09-03T03:06:21.819Z,0.040600002
2022-09-03T03:07:16.125Z,0.154280007
2022-09-03T03:09:26.531Z,0.081200004
2022-09-03T03:10:29.300Z,0.097440004
2022-09-03T03:11:30.022Z,0.048720002
2022-09-03T03:12:28.127Z,0.048720002
2022-09-03T03:13:36.706Z,0.113680005
2022-09-03T03:14:36.848Z,0.113680005
2022-09-03T03:15:38.445Z,0.056840003
2022-09-03T03:16:36.838Z,0.089320004
2022-09-03T03:17:34.675Z,0.097440004
2022-09-03T03:18:36.794Z,0.097440004
2022-09-03T03:19:34.680Z,0.154280007
2022-09-03T03:20:36.547Z,0.064960003
2022-09-03T03:21:37.512Z,0.081200004
2022-09-03T03:22:32.876Z,0.048720002
2022-09-03T03:23:35.292Z,0.073080003
2022-09-03T03:24:34.373Z,0.089320004
2022-09-03T03:25:29.712Z,0.121800005
2022-09-03T03:26:31.508Z,0.105560005
2022-09-03T03:27:27.106Z,0.073080003
2022-09-03T03:28:41.355Z,0.097440004
2022-09-03T03:29:35.749Z,0.121800005
2022-09-03T03:31:31.972Z,0.089320004
2022-09-03T03:32:35.713Z,0.040600002
2022-09-03T03:33:37.990Z,0.138040006
2022-09-03T03:34:46.556Z,0.146160007
2022-09-03T03:35:45.024Z,0.081200004
2022-09-03T03:36:44.054Z,0.016240001
2022-09-03T03:37:44.052Z,0.129920006
2022-09-03T03:38:39.129Z,0.097440004
2022-09-03T03:39:39.340Z,0.089320004
2022-09-03T03:40:37.473Z,0.178640008
2022-09-03T03:41:38.446Z,0.048720002
2022-09-03T03:42:34.952Z,0
2022-09-03T03:43:37.137Z,0.138040006
2022-09-03T03:44:38.072Z,0.048720002
2022-09-03T03:45:42.772Z,0.00812
2022-09-03T03:46:38.529Z,0.154280007
2022-09-03T03:47:38.266Z,0.105560005
2022-09-03T03:48:40.326Z,0.105560005
2022-09-03T03:51:06.606Z,0.073080003
2022-09-03T03:52:03.897Z,0.113680005
2022-09-03T03:53:03.335Z,0.089320004
2022-09-03T03:54:04.357Z,0.170520008
2022-09-03T03:54:05.600Z,0.170520008
2022-09-03T03:54:59.089Z,0.056840003
2022-09-03T03:55:56.804Z,0.129920006
2022-09-03T03:56:56.597Z,0.089320004
2022-09-03T03:57:53.882Z,0.113680005
2022-09-03T03:58:50.829Z,0.162400007
2022-09-03T03:59:49.223Z,0.097440004
2022-09-03T04:00:46.844Z,0.089320004
2022-09-03T04:01:45.870Z,0.056840003
2022-09-03T04:02:42.809Z,0.056840003
2022-09-03T04:03:39.918Z,0.016240001
2022-09-03T04:04:36.786Z,0.089320004
2022-09-03T04:05:35.664Z,0.105560005
2022-09-03T04:06:34.510Z,0.146160007
2022-09-03T04:07:31.492Z,0.056840003
2022-09-03T04:08:28.632Z,0.138040006
2022-09-03T04:09:25.639Z,0.048720002
2022-09-03T04:10:26.976Z,0.138040006
2022-09-03T04:11:31.019Z,0.073080003
2022-09-03T04:12:34.399Z,0.064960003
2022-09-03T04:13:32.293Z,0.138040006
2022-09-03T04:14:30.714Z,0.016240001
2022-09-03T04:15:28.209Z,0.056840003
2022-09-03T04:16:26.245Z,0.048720002
2022-09-03T04:17:25.366Z,0.154280007
2022-09-03T04:18:21.240Z,0.089320004
2022-09-03T04:19:25.378Z,0.073080003
2022-09-03T04:21:19.937Z,0.032480001
2022-09-03T04:22:16.648Z,0.121800005
2022-09-03T04:23:20.060Z,0.097440004
2022-09-03T04:24:20.606Z,0.089320004
2022-09-03T04:25:17.399Z,0.056840003
2022-09-03T04:26:20.558Z,0.178640008
2022-09-03T04:27:18.803Z,0.089320004
2022-09-03T04:28:17.960Z,0.016240001
2022-09-03T04:29:16.786Z,0.097440004
2022-09-03T04:30:16.067Z,0.105560005
2022-09-03T04:32:14.692Z,0.121800005
2022-09-03T04:33:17.393Z,0.089320004
2022-09-03T04:34:29.840Z,0.056840003
2022-09-03T04:35:31.370Z,0.121800005
2022-09-03T04:36:29.403Z,0.073080003
2022-09-03T04:37:30.534Z,0.081200004
2022-09-03T04:38:27.393Z,0.121800005
2022-09-03T04:39:24.887Z,0.048720002
2022-09-03T04:41:24.314Z,0.024360001
2022-09-03T04:42:29.788Z,0.073080003
2022-09-03T04:43:27.729Z,0.097440004
2022-09-03T04:44:25.652Z,0.048720002
2022-09-03T04:45:25.591Z,0.081200004
2022-09-03T04:46:23.710Z,0.22736001
2022-09-03T04:47:20.707Z,0.129920006
2022-09-03T04:48:20.301Z,0.089320004
2022-09-03T04:49:15.156Z,0.097440004
2022-09-03T04:50:15.121Z,0.081200004
2022-09-03T04:51:12.598Z,0.105560005
2022-09-03T04:52:15.248Z,0.146160007
2022-09-03T04:53:17.102Z,0.121800005
2022-09-03T04:54:19.521Z,0.138040006
2022-09-03T04:55:17.709Z,0.081200004
2022-09-03T04:56:09.658Z,0.121800005
2022-09-03T04:57:09.479Z,0.081200004
2022-09-03T04:58:08.572Z,0.056840003
2022-09-03T04:59:07.423Z,0.097440004
2022-09-03T05:00:06.454Z,0.129920006
2022-09-03T05:01:07.876Z,0.056840003
2022-09-03T05:02:00.397Z,0.154280007
2022-09-03T05:03:04.558Z,0.048720002
2022-09-03T05:03:58.798Z,0.089320004
2022-09-03T05:04:58.650Z,0.129920006
2022-09-03T05:05:52.946Z,0.186760008
2022-09-03T05:06:56.776Z,0.129920006
2022-09-03T05:07:58.515Z,0.162400007
2022-09-03T05:08:52.591Z,0.162400007
2022-09-03T05:09:51.423Z,0.113680005
2022-09-03T05:11:49.464Z,0.138040006
2022-09-03T05:12:47.561Z,0.154280007
2022-09-03T05:13:48.184Z,0.154280007
2022-09-03T05:14:40.159Z,0.146160007
2022-09-03T05:15:41.969Z,0.194880009
2022-09-03T05:16:35.412Z,0.211120009
2022-09-03T05:17:37.794Z,0.170520008
2022-09-03T05:18:31.510Z,0.211120009
2022-09-03T05:19:33.224Z,0.121800005
2022-09-03T05:20:29.753Z,0.170520008
2022-09-03T05:22:47.573Z,0.170520008
2022-09-03T05:23:49.296Z,0.162400007
2022-09-03T05:24:53.084Z,0.170520008
2022-09-03T05:26:48.949Z,0.162400007
2022-09-03T05:27:46.792Z,0.267960012
2022-09-03T05:28:48.397Z,0.21924001
2022-09-03T05:29:47.873Z,0.138040006
2022-09-03T05:30:47.925Z,0.170520008
2022-09-03T05:31:50.302Z,0.243600011
2022-09-03T05:32:43.206Z,0.154280007
2022-09-03T05:33:49.236Z,0.170520008
2022-09-03T05:34:42.220Z,0.251720011
2022-09-03T05:36:42.761Z,0.259840012
2022-09-03T05:37:38.160Z,0.162400007
2022-09-03T05:38:41.638Z,0.259840012
2022-09-03T05:39:36.003Z,0.251720011
2022-09-03T05:40:35.091Z,0.21924001
2022-09-03T05:41:32.203Z,0.186760008
2022-09-03T05:42:36.341Z,0.267960012
2022-09-03T05:43:31.633Z,0.308560014
2022-09-03T05:44:34.327Z,0.22736001
2022-09-03T05:46:27.776Z,0.203000009
2022-09-03T05:47:26.839Z,0.292320013
2022-09-03T05:48:29.953Z,0.211120009
2022-09-03T05:49:28.490Z,0.235480011
2022-09-03T05:50:31.246Z,0.276080012
2022-09-03T05:51:29.907Z,0.251720011
2022-09-03T05:52:27.957Z,0.194880009
2022-09-03T05:53:29.839Z,0.332920015
2022-09-03T05:54:25.306Z,0.138040006
2022-09-03T05:55:29.078Z,0.259840012
2022-09-03T05:56:23.172Z,0.341040015
2022-09-03T05:57:26.703Z,0.495320022
2022-09-03T05:58:19.410Z,0.22736001
2022-09-03T05:59:19.917Z,0.357280016
2022-09-03T06:00:15.215Z,0.373520017
2022-09-03T06:01:18.230Z,0.324800014
2022-09-03T06:02:13.684Z,0.300440013
2022-09-03T06:03:18.001Z,0.267960012
2022-09-03T06:04:15.345Z,0.349160016
2022-09-03T06:05:15.303Z,0.324800014
2022-09-03T06:06:13.730Z,0.422240019
2022-09-03T06:08:36.404Z,0.365400016
2022-09-03T06:09:33.808Z,0.422240019
2022-09-03T06:10:36.545Z,0.324800014
2022-09-03T06:10:40.850Z,0.324800014
2022-09-03T06:10:41.290Z,0.324800014
2022-09-03T06:11:28.403Z,0.381640017
2022-09-03T06:12:27.741Z,0.592760026
2022-09-03T06:13:24.069Z,0.22736001
2022-09-03T06:14:23.627Z,0.341040015
2022-09-03T06:15:19.525Z,0.462840021
2022-09-03T06:16:18.809Z,0.422240019
2022-09-03T06:16:27.193Z,0.422240019
2022-09-03T06:16:31.812Z,0.422240019
2022-09-03T06:17:18.388Z,0.324800014
2022-09-03T06:18:15.322Z,0.552160025
2022-09-03T06:19:14.472Z,0.511560023
2022-09-03T06:20:09.714Z,0.511560023
2022-09-03T06:21:11.557Z,0.584640026
2022-09-03T06:22:06.658Z,0.544040024
2022-09-03T06:23:01.192Z,0.633360028
2022-09-03T06:24:02.832Z,0.495320022
2022-09-03T06:25:02.835Z,0.470960021
2022-09-03T06:26:58.576Z,0.365400016
2022-09-03T06:27:53.773Z,0.66584003
2022-09-03T06:28:53.608Z,0.430360019
2022-09-03T06:29:51.728Z,0.600880027
2022-09-03T06:30:50.158Z,0.487200022
2022-09-03T06:31:49.378Z,0.68208003
2022-09-03T06:32:45.425Z,0.576520026
2022-09-03T06:33:42.158Z,0.600880027
2022-09-03T06:34:42.194Z,0.722680032
2022-09-03T06:35:42.900Z,0.641480029
2022-09-03T06:35:42.978Z,0.641480029
2022-09-03T06:36:39.500Z,0.67396003
2022-09-03T06:37:37.151Z,0.600880027
2022-09-03T06:38:31.699Z,0.617120028
2022-09-03T06:39:32.492Z,0.698320031
2022-09-03T06:40:25.945Z,0.633360028
2022-09-03T06:41:22.026Z,0.771400034
2022-09-03T06:43:47.468Z,0.820120037
2022-09-03T06:44:47.477Z,0.738920033
2022-09-03T06:45:46.644Z,0.917560041
2022-09-03T06:46:41.979Z,0.803880036
2022-09-03T06:47:42.107Z,0.633360028
2022-09-03T06:48:36.758Z,0.982520044
2022-09-03T06:49:36.442Z,0.600880027
2022-09-03T06:51:30.747Z,0.771400034
2022-09-03T06:52:27.055Z,0.89320004
2022-09-03T06:53:26.100Z,0.787640035
2022-09-03T06:53:32.180Z,0.787640035
2022-09-03T06:54:21.495Z,1.079960108
2022-09-03T06:55:20.849Z,1.055600047
2022-09-03T06:56:15.735Z,1.031239986
2022-09-03T06:57:15.353Z,0.844480038
2022-09-03T06:58:10.886Z,0.933800042
2022-09-03T06:59:08.524Z,0.88508004
2022-09-03T07:00:07.893Z,1.071840048
2022-09-03T07:02:01.446Z,1.063719988
2022-09-03T07:03:00.392Z,1.266720057
2022-09-03T07:03:55.282Z,1.226119995
2022-09-03T07:04:53.782Z,1.461600065
2022-09-03T07:05:53.330Z,1.412880063
2022-09-03T07:06:48.438Z,1.534680128
2022-09-03T07:07:50.912Z,1.607760072
2022-09-03T07:08:43.334Z,1.729560137
2022-09-03T07:09:48.320Z,2.127439976
2022-09-03T07:11:36.515Z,2.281720161
2022-09-03T07:12:39.447Z,2.509080172
2022-09-03T07:13:33.825Z,2.68772006
2022-09-03T07:14:32.959Z,2.947560072
2022-09-03T07:16:30.347Z,3.061240196
2022-09-03T07:17:26.188Z,3.605280161
2022-09-03T07:18:53.097Z,-0.089320004
2022-09-03T07:19:31.381Z,4.327960014
2022-09-03T07:21:28.654Z,3.824520111
2022-09-03T07:22:31.294Z,3.905720234
2022-09-03T07:23:28.366Z,4.222400188
2022-09-03T07:24:24.470Z,3.662120104
2022-09-03T07:25:28.401Z,3.386040211
2022-09-03T07:27:22.854Z,4.00316
2022-09-03T07:28:19.395Z,4.181800365
2022-09-03T07:29:21.226Z,4.636520386
2022-09-03T07:30:17.057Z,4.701480389
2022-09-03T07:32:15.252Z,5.196800232
2022-09-03T07:33:15.789Z,5.180560112
2022-09-03T07:34:12.978Z,5.610920429
2022-09-03T07:35:16.251Z,5.083120346
2022-09-03T07:37:14.406Z,5.237400055
2022-09-03T07:38:08.911Z,5.099360466
2022-09-03T07:39:09.935Z,5.083120346
2022-09-03T07:40:06.534Z,4.717720032
2022-09-03T07:41:05.353Z,4.880120277
2022-09-03T07:42:06.892Z,5.302360058
2022-09-03T07:43:03.655Z,5.375440121
2022-09-03T07:44:05.170Z,5.440400124
2022-09-03T07:45:01.930Z,5.578440189
2022-09-03T07:46:03.849Z,5.911360264
2022-09-03T07:47:00.912Z,6.106240273
2022-09-03T07:48:02.395Z,5.107480049
2022-09-03T07:48:59.669Z,5.651520252
2022-09-03T07:50:03.590Z,5.951960087
2022-09-03T07:50:57.911Z,5.659640312
2022-09-03T07:51:59.647Z,5.310480118
2022-09-03T07:52:56.793Z,5.651520252
2022-09-03T07:53:58.301Z,5.610920429
2022-09-03T07:54:55.141Z,5.903240204
2022-09-03T07:56:54.072Z,6.439160347
2022-09-03T07:57:56.549Z,5.659640312
2022-09-03T07:58:54.427Z,6.01692009
2022-09-03T07:59:55.366Z,5.878880501
2022-09-03T08:00:53.512Z,5.960080147
2022-09-03T08:01:57.683Z,5.951960087
2022-09-03T08:02:52.283Z,6.268640518
2022-09-03T08:03:54.622Z,6.260520458
2022-09-03T08:04:52.897Z,6.390440464
2022-09-03T08:05:53.909Z,6.187440395
2022-09-03T08:06:52.207Z,6.357960224
2022-09-03T08:08:31.272Z,-0.081200004
2022-09-03T08:08:35.628Z,-0.081200004
2022-09-03T08:09:10.938Z,6.772080421
2022-09-03T08:10:09.245Z,6.211800098
2022-09-03T08:12:05.631Z,5.684000015
2022-09-03T08:13:06.576Z,6.333600044
2022-09-03T08:14:02.303Z,6.219920158
2022-09-03T08:15:03.005Z,5.911360264
2022-09-03T08:16:59.545Z,6.52848053
2022-09-03T08:17:55.763Z,6.577200413
2022-09-03T08:18:03.743Z,6.577200413
2022-09-03T08:18:05.990Z,6.577200413
2022-09-03T08:18:56.918Z,7.405440331
2022-09-03T08:19:53.890Z,6.796440125
2022-09-03T08:21:50.322Z,7.381080151
2022-09-03T08:22:51.168Z,7.040040493
2022-09-03T08:23:47.501Z,7.405440331
2022-09-03T08:24:48.370Z,7.153720379
2022-09-03T08:26:51.378Z,7.941360474
2022-09-03T08:26:52.397Z,7.941360474
2022-09-03T08:27:44.715Z,7.868280411
2022-09-03T08:28:41.243Z,7.714000225
2022-09-03T08:29:42.540Z,7.949480534
2022-09-03T08:30:39.289Z,8.063159943
2022-09-03T08:31:40.457Z,8.111880302
2022-09-03T08:32:37.586Z,8.655920029
2022-09-03T08:33:38.337Z,8.420440674
2022-09-03T08:34:34.928Z,8.99696064
2022-09-03T08:35:36.448Z,8.298640251
2022-09-03T08:36:57.065Z,8.647800446
2022-09-03T08:37:58.614Z,8.45291996
2022-09-03T08:38:55.300Z,8.850800514
2022-09-03T08:39:57.239Z,9.021320343
2022-09-03T08:40:53.876Z,9.216200829
2022-09-03T08:41:55.560Z,8.899520874
2022-09-03T08:42:52.316Z,8.883280754
2022-09-03T08:43:53.974Z,8.347360611
2022-09-03T08:44:51.259Z,8.956360817
2022-09-03T08:46:49.080Z,7.998200417
2022-09-03T08:47:50.551Z,7.722120285
2022-09-03T08:48:47.231Z,7.819560528
2022-09-03T08:49:49.437Z,8.956360817
2022-09-03T08:51:47.625Z,7.649040222
2022-09-03T08:52:44.871Z,7.795200348
2022-09-03T08:53:45.867Z,7.616560459
2022-09-03T08:54:42.863Z,7.291760445
2022-09-03T08:56:40.753Z,7.324240208
2022-09-03T08:58:16.083Z,9.906400681
2022-09-03T09:00:32.712Z,0.186760008
2022-09-03T09:02:14.211Z,7.762720108
2022-09-03T09:03:10.448Z,7.519120216
2022-09-03T09:04:11.310Z,7.722120285
2022-09-03T09:05:11.141Z,7.868280411
2022-09-03T09:05:14.307Z,7.868280411
2022-09-03T09:07:05.139Z,7.624680519
2022-09-03T09:08:05.772Z,7.446040154
2022-09-03T09:09:01.701Z,7.389200211
2022-09-03T09:10:02.701Z,7.616560459
2022-09-03T09:11:59.432Z,6.658400536
2022-09-03T09:12:57.789Z,6.715240479
2022-09-03T09:13:53.973Z,6.991320133
2022-09-03T09:14:55.187Z,6.309240341
2022-09-03T09:16:51.709Z,6.333600044
2022-09-03T09:17:48.014Z,6.382320404
2022-09-03T09:18:48.448Z,6.455400467
2022-09-03T09:19:44.090Z,6.195560455
2022-09-03T09:20:47.337Z,6.008800507
2022-09-03T09:21:41.712Z,6.910120487
2022-09-03T09:22:41.483Z,7.283640385
2022-09-03T09:23:37.431Z,7.234920502
2022-09-03T09:24:38.274Z,7.234920502
2022-09-03T09:25:34.448Z,6.812680244
2022-09-03T09:27:33.581Z,7.462280273
2022-09-03T09:28:29.555Z,7.048160553
2022-09-03T09:29:33.038Z,6.690880299
2022-09-03T09:30:26.512Z,6.260520458
2022-09-03T09:32:23.235Z,5.351080418
2022-09-03T09:33:26.674Z,6.073760033
2022-09-03T09:34:20.590Z,6.130600452
2022-09-03T09:35:20.817Z,5.862640381
2022-09-03T09:37:16.623Z,3.426640034
2022-09-03T09:38:46.515Z,-0.056840003
2022-09-03T09:39:21.128Z,2.720200062
2022-09-03T09:40:19.193Z,2.533440113
2022-09-03T09:41:19.473Z,2.24924016
2022-09-03T09:42:14.614Z,1.607760072
2022-09-03T09:43:15.312Z,2.606520176
2022-09-03T09:44:10.870Z,1.78640008
2022-09-03T09:44:15.896Z,1.78640008
2022-09-03T09:45:10.841Z,1.924440145
2022-09-03T09:47:06.250Z,2.127439976
2022-09-03T09:48:01.739Z,2.02188015
2022-09-03T09:49:04.320Z,2.159920216
2022-09-03T09:49:56.961Z,2.306080103
2022-09-03T09:50:59.957Z,2.224880219
2022-09-03T09:51:52.508Z,2.038120031
2022-09-03T09:52:52.280Z,2.127439976
2022-09-03T09:53:50.442Z,2.046240091
2022-09-03T09:54:47.404Z,2.379160166
2022-09-03T09:55:47.083Z,2.103080034
2022-09-03T09:57:42.161Z,2.525320053
2022-09-03T09:58:37.766Z,2.103080034
2022-09-03T09:59:37.783Z,2.176160097
2022-09-03T10:00:33.138Z,1.940680027
2022-09-03T10:02:28.157Z,2.427880049
2022-09-03T10:03:30.134Z,2.24924016
2022-09-03T10:04:22.922Z,2.143680096
2022-09-03T10:05:25.393Z,2.46036005
2022-09-03T10:07:20.722Z,2.525320053
2022-09-03T10:08:14.130Z,2.541560173
2022-09-03T10:09:14.515Z,2.647119999
2022-09-03T10:10:15.152Z,2.69584012
2022-09-03T10:11:08.594Z,3.239880085
2022-09-03T10:12:08.413Z,4.01940012
2022-09-03T10:13:03.958Z,4.246760368
2022-09-03T10:14:07.395Z,4.433520317
2022-09-03T10:15:00.670Z,4.539080143
2022-09-03T10:17:01.671Z,3.848880291
2022-09-03T10:17:54.699Z,3.491600037
2022-09-03T10:18:57.680Z,3.865120173
2022-09-03T10:19:50.898Z,2.971920013
2022-09-03T10:21:46.763Z,2.817640066
2022-09-03T10:23:23.884Z,-0.081200004
2022-09-03T10:24:07.291Z,2.346680164
2022-09-03T10:25:03.186Z,2.200520039
2022-09-03T10:26:58.373Z,1.770160079
2022-09-03T10:28:00.598Z,1.973160028
2022-09-03T10:28:56.841Z,1.900080085
2022-09-03T10:29:53.587Z,2.054360151
2022-09-03T10:30:49.069Z,1.818880081
2022-09-03T10:31:51.662Z,1.851360083
2022-09-03T10:32:48.584Z,1.940680027
2022-09-03T10:33:49.282Z,1.648360014
2022-09-03T10:34:42.653Z,1.615880013
2022-09-03T10:35:45.379Z,1.607760072
2022-09-03T10:36:37.991Z,1.591520071
2022-09-03T10:37:35.457Z,2.038120031
2022-09-03T10:38:34.929Z,1.624000072
2022-09-03T10:39:30.234Z,1.461600065
2022-09-03T10:40:27.669Z,1.469720125
2022-09-03T10:42:22.546Z,2.02188015
2022-09-03T10:43:23.205Z,1.867600083
2022-09-03T10:44:18.866Z,1.705200076
2022-09-03T10:45:18.471Z,1.981280088
2022-09-03T10:47:13.158Z,1.55092001
2022-09-03T10:48:08.280Z,1.851360083
2022-09-03T10:49:10.328Z,1.867600083
2022-09-03T10:50:02.750Z,1.672720075
2022-09-03T10:51:58.454Z,1.380400062
2022-09-03T10:53:00.251Z,1.648360014
2022-09-03T10:53:54.374Z,1.648360014
2022-09-03T10:54:55.881Z,1.372280121
2022-09-03T10:55:48.337Z,1.429120064
2022-09-03T10:57:46.953Z,-0.089320004
2022-09-03T10:58:28.225Z,1.469720125
2022-09-03T10:59:30.170Z,1.55092001
2022-09-03T11:00:26.650Z,1.364160061
2022-09-03T11:02:27.813Z,1.583400011
2022-09-03T11:03:30.197Z,1.534680128
2022-09-03T11:04:26.787Z,1.680840015
2022-09-03T11:05:28.122Z,1.542800069
2022-09-03T11:06:25.210Z,1.672720075
2022-09-03T11:07:26.417Z,1.924440145
2022-09-03T11:08:25.498Z,1.55092001
2022-09-03T11:09:23.268Z,1.339800119
2022-09-03T11:10:24.749Z,1.680840015
2022-09-03T11:10:30.868Z,1.680840015
2022-09-03T11:12:22.587Z,1.542800069
2022-09-03T11:13:25.858Z,1.421000004
2022-09-03T11:14:20.534Z,1.632120132
2022-09-03T11:15:27.706Z,1.55904007
2022-09-03T11:17:18.272Z,1.624000072
2022-09-03T11:18:19.783Z,1.339800119
2022-09-03T11:19:17.821Z,1.624000072
2022-09-03T11:20:18.115Z,1.656480074
2022-09-03T11:22:20.729Z,1.599640131
2022-09-03T11:23:17.641Z,1.404760122
2022-09-03T11:24:15.033Z,1.461600065
2022-09-03T11:25:11.533Z,1.624000072
2022-09-03T11:27:09.749Z,1.624000072
2022-09-03T11:28:12.258Z,1.258599997
2022-09-03T11:29:10.395Z,1.307320118
2022-09-03T11:30:11.619Z,1.339800119
2022-09-03T11:32:07.217Z,1.258599997
2022-09-03T11:33:11.564Z,1.77828002
2022-09-03T11:34:06.655Z,1.315440059